Time;durP1;ratioP1;P1;durP2;ratioP2;P2;SDS_P1;SDS_P2;PMS_P1;PMS_P2;Temp;Humidity;BMP_temperature;BMP_pressure;BME280_temperature;BME280_humidity;BME280_pressure;Samples;Min_cycle;Max_cycle;Signal;HPM_P1;HPM_P2
2023/08/22 00:00:30;;;;;;;6.60;1.75;;;;;;;;;;4991343;28;20501;-73
2023/08/22 00:02:58;;;;;;;5.90;2.20;;;;;;;;;;4986880;28;20307;-73
2023/08/22 00:05:24;;;;;;;4.55;1.75;;;;;;;;;;4988435;28;20108;-72
2023/08/22 00:07:50;;;;;;;5.38;1.60;;;;;;;;;;4982374;28;20026;-73
2023/08/22 00:10:16;;;;;;;4.47;2.00;;;;;;;;;;4988909;28;20101;-73
2023/08/22 00:12:43;;;;;;;7.45;1.95;;;;;;;;;;4992677;28;20084;-73
2023/08/22 00:15:10;;;;;;;5.10;2.33;;;;;;;;;;4990409;28;20148;-73
2023/08/22 00:17:36;;;;;;;5.55;2.10;;;;;;;;;;5002152;28;20045;-72
2023/08/22 00:20:12;;;;;;;4.70;2.35;;;;;;;;;;4988104;28;20045;-72
2023/08/22 00:22:38;;;;;;;9.40;2.97;;;;;;;;;;4987862;28;20120;-73
2023/08/22 00:25:04;;;;;;;6.15;2.70;;;;;;;;;;4982743;28;20027;-73
2023/08/22 00:27:31;;;;;;;7.18;3.17;;;;;;;;;;4989850;28;20060;-72
2023/08/22 00:29:57;;;;;;;6.95;2.70;;;;;;;;;;4999088;28;20061;-73
2023/08/22 00:32:23;;;;;;;10.43;3.35;;;;;;;;;;4990927;28;20125;-73
2023/08/22 00:34:49;;;;;;;6.07;3.10;;;;;;;;;;4992123;28;20027;-73
2023/08/22 00:37:15;;;;;;;10.02;3.40;;;;;;;;;;4989504;28;20038;-74
2023/08/22 00:39:42;;;;;;;7.57;2.85;;;;;;;;;;4989876;28;20053;-73
2023/08/22 00:42:08;;;;;;;5.85;2.40;;;;;;;;;;4985341;28;20134;-73
2023/08/22 00:44:34;;;;;;;5.90;3.03;;;;;;;;;;4996796;28;20668;-73
2023/08/22 00:47:00;;;;;;;8.88;3.10;;;;;;;;;;4993698;28;20042;-73
2023/08/22 00:49:26;;;;;;;16.48;4.55;;;;;;;;;;4987656;28;20030;-73
2023/08/22 00:51:52;;;;;;;7.93;3.15;;;;;;;;;;4995870;28;20042;-73
2023/08/22 00:54:20;;;;;;;5.68;2.40;;;;;;;;;;4991614;28;20065;-73
2023/08/22 00:56:46;;;;;;;7.45;2.90;;;;;;;;;;4996384;28;20038;-72
2023/08/22 00:59:12;;;;;;;10.35;3.40;;;;;;;;;;4987284;28;20105;-73
2023/08/22 01:01:39;;;;;;;8.95;4.25;;;;;;;;;;4993947;28;20616;-73
2023/08/22 01:04:05;;;;;;;7.82;3.00;;;;;;;;;;4991980;28;20097;-72
2023/08/22 01:06:49;;;;;;;10.27;3.17;;;;;;;;;;4992265;28;20031;-73
2023/08/22 01:10:00;;;;;;;4.32;2.50;;;18.20;99.90;;;;;;4990780;28;20022;-73
2023/08/22 01:12:29;;;;;;;3.83;2.70;;;;;;;;;;4981569;28;20050;-73
2023/08/22 01:15:06;;;;;;;11.27;3.08;;;;;;;;;;4990861;28;20066;-72
2023/08/22 01:17:33;;;;;;;10.15;3.20;;;;;;;;;;4989649;28;20110;-72
2023/08/22 01:19:59;;;;;;;10.48;2.72;;;;;;;;;;4991968;28;20042;-73
2023/08/22 01:22:26;;;;;;;8.88;3.20;;;;;;;;;;4993336;28;20076;-72
2023/08/22 01:24:52;;;;;;;7.30;3.17;;;;;;;;;;4991081;28;20081;-73
2023/08/22 01:27:21;;;;;;;6.78;3.10;;;;;;;;;;4993929;28;20046;-72
2023/08/22 01:29:51;;;;;;;6.68;4.03;;;;;;;;;;4983858;28;20523;-72
2023/08/22 01:32:24;;;;;;;7.78;3.40;;;;;;;;;;4986227;28;20046;-72
2023/08/22 01:34:52;;;;;;;6.20;4.60;;;;;;;;;;4987221;28;20035;-72
2023/08/22 01:37:21;;;;;;;7.93;4.38;;;;;;;;;;4991744;28;20026;-73
2023/08/22 01:39:48;;;;;;;9.65;4.35;;;;;;;;;;4988840;28;20043;-73
2023/08/22 01:42:14;;;;;;;6.68;4.35;;;;;;;;;;4995748;28;20117;-73
2023/08/22 01:44:40;;;;;;;7.97;4.60;;;;;;;;;;4989823;28;20033;-72
2023/08/22 01:47:06;;;;;;;8.50;4.63;;;;;;;;;;4998261;28;20034;-73
2023/08/22 01:49:36;;;;;;;9.18;4.25;;;;;;;;;;4987421;28;20042;-73
2023/08/22 01:52:02;;;;;;;8.80;4.30;;;;;;;;;;4988459;28;20038;-73
2023/08/22 01:54:28;;;;;;;11.23;5.13;;;;;;;;;;4987263;28;20046;-72
2023/08/22 01:56:55;;;;;;;11.48;4.30;;;;;;;;;;5008087;28;20042;-76
2023/08/22 01:59:21;;;;;;;6.28;4.57;;;;;;;;;;4989024;28;20379;-73
2023/08/22 02:01:47;;;;;;;8.80;4.85;;;;;;;;;;4982669;28;20026;-73
2023/08/22 02:04:13;;;;;;;13.98;4.90;;;;;;;;;;4990676;28;20113;-73
2023/08/22 02:06:39;;;;;;;8.18;4.18;;;;;;;;;;4987639;28;20054;-72
2023/08/22 02:09:05;;;;;;;7.90;4.18;;;;;;;;;;4995523;28;20537;-72
2023/08/22 02:11:32;;;;;;;12.30;4.47;;;;;;;;;;4992551;28;20046;-82
2023/08/22 02:13:59;;;;;;;24.08;15.77;;;;;;;;;;4992577;28;20419;-78
2023/08/22 02:16:25;;;;;;;14.27;6.53;;;;;;;;;;4985865;28;20541;-79
2023/08/22 02:18:51;;;;;;;9.75;5.43;;;;;;;;;;4989180;28;20047;-80
2023/08/22 02:21:17;;;;;;;6.18;4.75;;;;;;;;;;4984253;28;20530;-75
2023/08/22 02:23:43;;;;;;;6.60;4.68;;;;;;;;;;4988287;28;20030;-73
2023/08/22 02:26:10;;;;;;;10.80;6.05;;;;;;;;;;5000043;28;20105;-76
2023/08/22 02:28:36;;;;;;;7.57;4.72;;;;;;;;;;4988603;28;20121;-74
2023/08/22 02:31:02;;;;;;;9.75;4.85;;;;;;;;;;4990926;28;20372;-73
2023/08/22 02:33:28;;;;;;;9.05;4.63;;;;;;;;;;4991103;28;20058;-73
2023/08/22 02:35:54;;;;;;;13.88;4.72;;;;;;;;;;4984937;28;20428;-74
2023/08/22 02:38:20;;;;;;;9.70;4.53;;;;;;;;;;4992894;28;20123;-75
2023/08/22 02:40:46;;;;;;;10.23;5.32;;;;;;;;;;4985499;28;20121;-75
2023/08/22 02:43:12;;;;;;;8.88;5.60;;;;;;;;;;4989815;28;20030;-74
2023/08/22 02:45:38;;;;;;;9.23;5.82;;;;;;;;;;4994050;28;20412;-75
2023/08/22 02:48:05;;;;;;;9.45;6.22;;;;;;;;;;4990304;28;20053;-75
2023/08/22 02:50:31;;;;;;;7.20;4.97;;;;;;;;;;4991095;28;20053;-74
2023/08/22 02:52:57;;;;;;;110.90;59.28;;;;;;;;;;4997984;28;20046;-72
2023/08/22 02:55:23;;;;;;;29.20;19.77;;;;;;;;;;4995450;28;20091;-73
2023/08/22 02:57:49;;;;;;;20.35;10.73;;;;;;;;;;4984530;28;20043;-74
2023/08/22 03:00:15;;;;;;;14.55;6.85;;;;;;;;;;4989023;28;20034;-75
2023/08/22 03:02:41;;;;;;;11.98;5.75;;;;;;;;;;4982253;28;20567;-74
2023/08/22 03:05:11;;;;;;;11.40;6.22;;;;;;;;;;4993826;28;20125;-73
2023/08/22 03:07:37;;;;;;;10.00;5.97;;;;;;;;;;4978230;28;20286;-73
2023/08/22 03:10:03;;;;;;;10.18;6.35;;;;;;;;;;4990324;28;20060;-73
2023/08/22 03:12:29;;;;;;;9.85;6.28;;;;;;;;;;4987420;28;20039;-73
2023/08/22 03:14:55;;;;;;;11.95;7.20;;;;;;;;;;4975635;28;20045;-73
2023/08/22 03:17:21;;;;;;;7.60;6.53;;;;;;;;;;4983361;28;20063;-73
2023/08/22 03:19:47;;;;;;;7.80;6.50;;;;;;;;;;4993551;28;20106;-73
2023/08/22 03:22:13;;;;;;;9.50;6.88;;;;;;;;;;4988647;28;20041;-73
2023/08/22 03:24:39;;;;;;;10.45;6.78;;;;;;;;;;4991096;28;20030;-73
2023/08/22 03:27:05;;;;;;;10.07;6.20;;;;;;;;;;4990358;28;20139;-73
2023/08/22 03:29:31;;;;;;;7.07;6.10;;;;;;;;;;4983301;28;20464;-73
2023/08/22 03:31:58;;;;;;;13.35;6.25;;;;;;;;;;4986901;28;20062;-73
2023/08/22 03:34:24;;;;;;;9.18;5.82;;;;;;;;;;4988370;28;20055;-73
2023/08/22 03:36:50;;;;;;;9.70;6.25;;;;;;;;;;4988849;28;20026;-73
2023/08/22 03:39:16;;;;;;;10.30;5.88;;;;;;;;;;4985737;28;22007;-73
2023/08/22 03:41:42;;;;;;;10.57;6.07;;;;;;;;;;4992039;28;20038;-73
2023/08/22 03:44:08;;;;;;;8.55;6.28;;;;;;;;;;4991576;28;20069;-73
2023/08/22 03:46:34;;;;;;;10.60;6.40;;;;;;;;;;4982089;28;20042;-73
2023/08/22 03:49:00;;;;;;;7.35;5.55;;;;;;;;;;4989460;28;20079;-73
2023/08/22 03:51:26;;;;;;;11.27;5.15;;;;;;;;;;4998652;28;20110;-73
2023/08/22 03:53:54;;;;;;;11.55;5.32;;;;;;;;;;4987829;28;20164;-73
2023/08/22 03:56:20;;;;;;;7.50;5.03;;;;;;;;;;4987050;28;20496;-73
2023/08/22 03:58:46;;;;;;;6.95;4.57;;;;;;;;;;4989248;28;20031;-73
2023/08/22 04:01:12;;;;;;;9.77;4.70;;;;;;;;;;4986612;28;20034;-74
2023/08/22 04:03:38;;;;;;;8.35;5.25;;;;;;;;;;4988085;28;20157;-73
2023/08/22 04:06:07;;;;;;;7.22;5.22;;;;;;;;;;4981752;28;20034;-73
2023/08/22 04:08:33;;;;;;;8.35;5.32;;;;;;;;;;4986889;28;20026;-73
2023/08/22 04:10:59;;;;;;;9.95;5.28;;;;;;;;;;4984250;28;20990;-73
2023/08/22 04:13:25;;;;;;;8.88;5.57;;;;;;;;;;4987775;28;20038;-74
2023/08/22 04:15:51;;;;;;;8.10;5.30;;;;;;;;;;4983538;28;20035;-73
2023/08/22 04:18:17;;;;;;;8.35;6.50;;;;;;;;;;4990358;28;20045;-73
2023/08/22 04:20:43;;;;;;;11.07;6.43;;;;;;;;;;4992649;28;20026;-73
2023/08/22 04:23:12;;;;;;;8.52;6.45;;;;;;;;;;4990377;28;20049;-73
2023/08/22 04:25:38;;;;;;;9.32;5.60;;;;;;;;;;4991868;28;20038;-72
2023/08/22 04:28:04;;;;;;;8.13;5.07;;;;;;;;;;4988950;28;20716;-73
2023/08/22 04:30:30;;;;;;;10.70;5.20;;;;;;;;;;4985062;28;20624;-73
2023/08/22 04:32:57;;;;;;;11.68;5.28;;;;;;;;;;4986075;28;20073;-72
2023/08/22 04:35:23;;;;;;;9.60;5.03;;;;;;;;;;4987995;28;20530;-72
2023/08/22 04:37:49;;;;;;;11.18;5.80;;;;;;;;;;4988761;28;20034;-72
2023/08/22 04:40:15;;;;;;;10.00;5.47;;;;;;;;;;4987117;28;20534;-72
2023/08/22 04:42:41;;;;;;;8.20;4.88;;;;;;;;;;4983679;28;20061;-72
2023/08/22 04:45:08;;;;;;;11.50;4.90;;;;;;;;;;5006609;28;20662;-72
2023/08/22 04:47:34;;;;;;;6.47;4.30;;;;;;;;;;4994845;28;20070;-73
2023/08/22 04:50:00;;;;;;;8.98;4.68;;;;;;;;;;4989150;28;20038;-72
2023/08/22 04:52:26;;;;;;;11.00;6.05;;;;;;;;;;4990250;28;20038;-72
2023/08/22 04:54:52;;;;;;;11.60;4.78;;;;;;;;;;4994455;28;20038;-72
2023/08/22 04:57:20;;;;;;;6.70;4.85;;;;;;;;;;4988971;28;20121;-73
2023/08/22 04:59:46;;;;;;;7.68;4.80;;;;;;;;;;4992216;28;20054;-73
2023/08/22 05:02:12;;;;;;;7.22;5.30;;;;;;;;;;4994338;28;20038;-72
2023/08/22 05:04:38;;;;;;;7.03;5.07;;;;;;;;;;4992920;28;20141;-72
2023/08/22 05:07:04;;;;;;;7.88;4.75;;;;;;;;;;4987702;28;20430;-72
2023/08/22 05:09:30;;;;;;;5.88;4.63;;;;;;;;;;4995565;28;20198;-72
2023/08/22 05:11:56;;;;;;;6.53;4.85;;;;;;;;;;4995976;28;20514;-72
2023/08/22 05:14:22;;;;;;;13.25;5.03;;;;;;;;;;4986409;28;20492;-72
2023/08/22 05:16:51;;;;;;;7.38;4.57;;;;;;;;;;4995058;28;20117;-72
2023/08/22 05:19:17;;;;;;;7.88;5.38;;;;;;;;;;4987155;28;20030;-72
2023/08/22 05:21:43;;;;;;;7.55;5.45;;;;;;;;;;4987874;28;20030;-72
2023/08/22 05:24:09;;;;;;;8.63;5.47;;;;;;;;;;4992256;28;20117;-71
2023/08/22 05:26:35;;;;;;;9.98;6.65;;;;;;;;;;4991794;28;20033;-72
2023/08/22 05:29:01;;;;;;;7.60;6.25;;;;;;;;;;4996329;28;20498;-73
2023/08/22 05:31:27;;;;;;;9.75;5.80;;;;;;;;;;4993474;28;20133;-73
2023/08/22 05:33:53;;;;;;;10.80;5.75;;;;;;;;;;4993430;28;20070;-74
2023/08/22 05:36:19;;;;;;;11.38;6.00;;;;;;;;;;4990009;28;20117;-73
2023/08/22 05:38:45;;;;;;;8.57;5.82;;;;;;;;;;4989486;28;20061;-74
2023/08/22 05:41:11;;;;;;;7.40;5.15;;;;;;;;;;4991856;28;20062;-74
2023/08/22 05:43:37;;;;;;;9.35;6.25;;;;;;;;;;4985935;28;20105;-74
2023/08/22 05:46:03;;;;;;;11.90;6.72;;;;;;;;;;4992135;28;20034;-74
2023/08/22 05:48:30;;;;;;;11.27;5.95;;;;;;;;;;4991088;28;20781;-74
2023/08/22 05:51:01;;;;;;;8.15;6.93;;;;;;;;;;4990156;28;20025;-74
2023/08/22 05:53:27;;;;;;;9.68;6.95;;;;;;;;;;4994410;28;20085;-74
2023/08/22 05:55:53;;;;;;;8.57;6.15;;;;;;;;;;4983966;28;20057;-74
2023/08/22 05:58:19;;;;;;;10.32;6.00;;;;;;;;;;4990521;28;20030;-75
2023/08/22 06:00:46;;;;;;;9.55;5.93;;;;;;;;;;4987945;28;20046;-74
2023/08/22 06:03:12;;;;;;;13.60;8.10;;;;;;;;;;4988320;28;20097;-74
2023/08/22 06:05:38;;;;;;;11.50;7.90;;;;;;;;;;4991695;28;20042;-74
2023/08/22 06:08:04;;;;;;;10.63;7.30;;;;;;;;;;4988296;28;20031;-74
2023/08/22 06:10:30;;;;;;;11.93;7.38;;;;;;;;;;4984252;28;20081;-74
2023/08/22 06:12:56;;;;;;;14.20;7.80;;;;;;;;;;5002637;28;20591;-74
2023/08/22 06:15:22;;;;;;;9.93;6.78;;;;;;;;;;4988772;28;20030;-74
2023/08/22 06:17:48;;;;;;;13.65;7.10;;;;;;;;;;4980437;28;20083;-73
2023/08/22 06:20:15;;;;;;;13.68;8.00;;;;;;;;;;4987879;28;20571;-74
2023/08/22 06:22:41;;;;;;;10.65;7.03;;;;;;;;;;4987766;28;20034;-74
2023/08/22 06:25:07;;;;;;;12.05;7.03;;;;;;;;;;4989588;28;20388;-74
2023/08/22 06:27:33;;;;;;;9.98;6.80;;;;;;;;;;4987538;28;20431;-74
2023/08/22 06:30:00;;;;;;;12.35;7.00;;;;;;;;;;4988379;28;20035;-74
2023/08/22 06:32:26;;;;;;;13.63;6.93;;;;;;;;;;4989270;28;20048;-74
2023/08/22 06:34:52;;;;;;;16.50;7.25;;;;;;;;;;4987839;28;20489;-74
2023/08/22 06:37:19;;;;;;;11.55;7.70;;;;;;;;;;4988670;28;20046;-74
2023/08/22 06:39:45;;;;;;;11.25;7.07;;;;;;;;;;4984365;28;20085;-74
2023/08/22 06:42:11;;;;;;;12.27;7.40;;;;;;;;;;4978599;28;20065;-74
2023/08/22 06:44:37;;;;;;;10.15;6.78;;;;;;;;;;4992982;28;20077;-75
2023/08/22 06:47:03;;;;;;;12.48;6.60;;;;;;;;;;4990470;28;20039;-75
2023/08/22 06:49:29;;;;;;;8.98;6.82;;;;;;;;;;4986681;28;20057;-73
2023/08/22 06:51:55;;;;;;;24.17;7.57;;;;;;;;;;4989471;28;20066;-73
2023/08/22 06:54:21;;;;;;;7.63;6.32;;;;;;;;;;4994473;28;20073;-72
2023/08/22 06:56:47;;;;;;;12.00;7.75;;;;;;;;;;4981408;28;20491;-74
2023/08/22 06:59:13;;;;;;;10.02;6.47;;;;;;;;;;4990677;28;20065;-74
2023/08/22 07:01:39;;;;;;;10.95;6.43;;;;;;;;;;4987855;28;20030;-74
2023/08/22 07:04:05;;;;;;;9.15;6.18;;;;;;;;;;4991685;28;20042;-73
2023/08/22 07:06:31;;;;;;;11.85;6.75;;;;;;;;;;4986583;28;20037;-74
2023/08/22 07:08:57;;;;;;;12.18;6.32;;;;;;;;;;4984568;28;20030;-74
2023/08/22 07:11:23;;;;;;;10.32;6.72;;;;;;;;;;4988453;28;20498;-73
2023/08/22 07:13:50;;;;;;;12.20;6.20;;;;;;;;;;4984295;28;20034;-74
2023/08/22 07:16:16;;;;;;;10.50;5.70;;;;;;;;;;4992675;28;20027;-74
2023/08/22 07:18:42;;;;;;;14.57;6.07;;;;;;;;;;4988648;28;20038;-73
2023/08/22 07:21:08;;;;;;;10.48;6.30;;;;;;;;;;4986417;28;20065;-74
2023/08/22 07:23:34;;;;;;;11.63;6.50;;;;;;;;;;4987322;28;20049;-73
2023/08/22 07:26:02;;;;;;;14.48;6.85;;;;;;;;;;4986279;28;20100;-73
2023/08/22 07:28:28;;;;;;;10.00;6.53;;;;;;;;;;4989741;28;20523;-73
2023/08/22 07:30:54;;;;;;;10.38;6.35;;;;;;;;;;4980079;28;20112;-75
2023/08/22 07:33:20;;;;;;;12.57;5.50;;;;;;;;;;4985299;28;20422;-77
2023/08/22 07:35:46;;;;;;;13.23;6.43;;;;;;;;;;4982015;28;20667;-77
2023/08/22 07:38:12;;;;;;;12.25;7.15;;;;;;;;;;4984339;28;20081;-75
2023/08/22 07:40:40;;;;;;;13.80;10.23;;;;;;;;;;4988314;28;20034;-78
2023/08/22 07:43:06;;;;;;;22.98;14.15;;;;;;;;;;4994708;28;20038;-79
2023/08/22 07:45:32;;;;;;;9.77;5.70;;;;;;;;;;4996293;28;20532;-80
2023/08/22 07:47:59;;;;;;;9.48;5.85;;;;;;;;;;4983017;28;20206;-78
2023/08/22 07:50:25;;;;;;;9.02;5.97;;;;;;;;;;4987709;28;20041;-75
2023/08/22 07:52:51;;;;;;;9.55;5.20;;;;;;;;;;4995672;28;20092;-76
2023/08/22 07:55:17;;;;;;;10.75;5.38;;;;;;;;;;4983699;28;20034;-76
2023/08/22 07:57:43;;;;;;;10.35;6.10;;;;;;;;;;4995488;28;20058;-75
2023/08/22 08:00:11;;;;;;;11.60;5.82;;;;;;;;;;4990813;28;20039;-75
2023/08/22 08:02:37;;;;;;;13.63;7.40;;;;;;;;;;4987903;28;20034;-76
2023/08/22 08:05:03;;;;;;;22.33;15.15;;;;;;;;;;4990864;28;20034;-79
2023/08/22 08:07:29;;;;;;;9.25;5.05;;;;;;;;;;4993321;28;20033;-81
2023/08/22 08:09:55;;;;;;;13.52;5.72;;;;;;;;;;4983418;28;20376;-77
2023/08/22 08:12:21;;;;;;;8.85;4.43;;;;;;;;;;4990216;28;20038;-81
2023/08/22 08:14:47;;;;;;;7.30;4.70;;;;;;;;;;4984648;28;20034;-79
2023/08/22 08:17:16;;;;;;;9.60;4.47;;;;;;;;;;4991918;28;20038;-77
2023/08/22 08:19:42;;;;;;;9.70;5.03;;;;;;;;;;4985258;28;20036;-77
2023/08/22 08:22:08;;;;;;;7.75;4.57;;;;;;;;;;4989729;28;20046;-77
2023/08/22 08:24:35;;;;;;;8.45;4.30;;;;;;;;;;4993508;28;20034;-77
2023/08/22 08:27:01;;;;;;;9.13;4.13;;;;;;;;;;4987578;28;20554;-77
2023/08/22 08:29:27;;;;;;;8.60;3.58;;;;;;;;;;4993981;28;20100;-78
2023/08/22 08:31:55;;;;;;;5.78;3.88;;;;;;;;;;4990239;28;20092;-77
2023/08/22 08:34:21;;;;;;;7.93;3.80;;;;;;;;;;4983714;28;20278;-77
2023/08/22 08:36:47;;;;;;;8.15;3.88;;;;;;;;;;4994775;28;20038;-77
2023/08/22 08:39:13;;;;;;;7.50;4.20;;;;;;;;;;4994824;28;20125;-78
2023/08/22 08:41:43;;;;;;;9.35;4.20;;;;;;;;;;4990060;28;20130;-80
2023/08/22 08:44:10;;;;;;;9.88;3.92;;;;;;;;;;4989232;28;20118;-78
2023/08/22 08:46:37;;;;;;;7.78;4.65;;;;;;;;;;4992105;28;20035;-76
2023/08/22 08:49:04;;;;;;;10.43;5.38;;;;;;;;;;4995588;28;20487;-74
2023/08/22 08:51:31;;;;;;;9.90;3.95;;;;;;;;;;4994226;28;20034;-77
2023/08/22 08:53:57;;;;;;;13.40;9.05;;;;;;;;;;4987745;28;20105;-79
2023/08/22 08:56:23;;;;;;;19.80;13.40;;;;;;;;;;4999495;28;20058;-77
2023/08/22 08:58:49;;;;;;;7.63;4.10;;;;;;;;;;4989972;28;20395;-80
2023/08/22 09:01:16;;;;;;;5.53;3.60;;;;;;;;;;4984759;28;20088;-74
2023/08/22 09:03:44;;;;;;;10.35;3.88;;;;;;;;;;5003465;28;20136;-74
2023/08/22 09:06:10;;;;;;;9.25;2.83;;;;;;;;;;4987276;28;20026;-75
2023/08/22 09:08:36;;;;;;;6.78;2.95;;;;;;;;;;4989979;28;20105;-75
2023/08/22 09:11:02;;;;;;;4.32;2.80;;;;;;;;;;4988798;28;20039;-73
2023/08/22 09:13:29;;;;;;;7.03;2.80;;;;;;;;;;4988870;28;20077;-77
2023/08/22 09:16:02;;;;;;;5.05;2.47;;;;;;;;;;4989790;28;20033;-77
2023/08/22 09:18:28;;;;;;;7.25;2.20;;;;;;;;;;4989466;28;20073;-75
2023/08/22 09:21:03;;;;;;;6.10;2.55;;;;;;;;;;4988710;28;20467;-78
2023/08/22 09:23:30;;;;;;;7.65;4.20;;;;;;;;;;4993842;28;20034;-80
2023/08/22 09:25:56;;;;;;;12.20;3.08;;;;;;;;;;4986235;28;20031;-79
2023/08/22 09:28:22;;;;;;;7.97;2.45;;;;;;;;;;4986968;28;20091;-77
2023/08/22 09:30:49;;;;;;;5.25;2.47;;;;;;;;;;4986499;28;20464;-75
2023/08/22 09:33:15;;;;;;;5.97;2.53;;;;;;;;;;4989348;28;20137;-75
2023/08/22 09:35:41;;;;;;;7.00;2.53;;;;;;;;;;4981423;28;20042;-75
2023/08/22 09:38:10;;;;;;;8.13;3.33;;;;;;;;;;4981801;28;20039;-75
2023/08/22 09:40:48;;;;;;;7.88;3.33;;;;;;;;;;4984383;28;20201;-74
2023/08/22 09:43:15;;;;;;;10.38;2.67;;;;;;;;;;4979856;28;20035;-75
2023/08/22 09:45:42;;;;;;;7.47;2.65;;;;;;;;;;4981086;28;20031;-74
2023/08/22 09:48:11;;;;;;;7.22;2.53;;;;;;;;;;4979826;28;20466;-76
2023/08/22 09:50:41;;;;;;;7.28;2.92;;;;;;;;;;4996082;28;20162;-76
2023/08/22 09:53:09;;;;;;;7.18;2.75;;;;;;;;;;4991344;28;20026;-76
2023/08/22 09:55:35;;;;;;;8.52;3.15;;;;;;;;;;4986416;28;20035;-76
2023/08/22 09:58:01;;;;;;;7.05;2.90;;;;;;;;;;4985281;28;20030;-76
2023/08/22 10:00:30;;;;;;;6.30;2.63;;;;;;;;;;4982996;28;20039;-77
2023/08/22 10:02:57;;;;;;;7.82;3.08;;;;;;;;;;4983149;28;20030;-77
2023/08/22 10:05:23;;;;;;;15.70;7.38;;;;;;;;;;4983389;28;20043;-76
2023/08/22 10:07:49;;;;;;;19.95;9.70;;;;;;;;;;4988362;28;20085;-76
2023/08/22 10:10:16;;;;;;;8.48;3.38;;;;;;;;;;4984099;28;20030;-76
2023/08/22 10:12:42;;;;;;;5.65;2.63;;;;;;;;;;4983637;28;20137;-78
2023/08/22 10:15:09;;;;;;;10.93;3.53;;;;;;;;;;4980752;28;20035;-76
2023/08/22 10:17:36;;;;;;;11.10;3.42;;;;;;;;;;4992396;28;20042;-75
2023/08/22 10:20:05;;;;;;;7.22;3.40;;;;;;;;;;4991331;28;20029;-75
2023/08/22 10:22:33;;;;;;;7.00;3.40;;;;;;;;;;4988925;28;20073;-78
2023/08/22 10:25:06;;;;;;;6.40;3.03;;;;;;;;;;4983312;28;20034;-79
2023/08/22 10:27:32;;;;;;;11.55;3.70;;;;;;;;;;4991860;28;20038;-83
2023/08/22 10:30:18;;;;;;;9.48;3.33;;;;;;;;;;4989396;28;20475;-77
2023/08/22 10:33:03;;;;;;;7.18;2.58;;;;;;;;;;4984762;28;20661;-80
2023/08/22 10:35:29;;;;;;;4.68;2.25;;;;;;;;;;4985438;28;20474;-77
2023/08/22 10:37:56;;;;;;;6.25;2.13;;;;;;;;;;4988706;28;20042;-79
2023/08/22 10:40:32;;;;;;;7.50;2.15;;;;;;;;;;4986336;28;20026;-80
2023/08/22 10:43:12;;;;;;;4.15;1.98;;;;;;;;;;4979257;28;20050;-80
2023/08/22 10:45:38;;;;;;;7.28;2.20;;;;;;;;;;4981078;28;20157;-78
2023/08/22 10:48:05;;;;;;;7.65;4.20;;;;;;;;;;4989399;28;20109;-74
2023/08/22 10:50:32;;;;;;;5.55;2.35;;;;;;;;;;4990973;28;20049;-75
2023/08/22 10:53:11;;;;;;;4.28;2.35;;;;;;;;;;4989088;28;20125;-76
2023/08/22 10:55:38;;;;;;;2.55;0.95;;;;;;;;;;4984785;28;20035;-77
2023/08/22 10:58:04;;;;;;;5.18;1.20;;;;;;;;;;4987714;28;20400;-79
2023/08/22 11:00:31;;;;;;;7.85;1.80;;;;;;;;;;4988209;28;20042;-79
2023/08/22 11:02:58;;;;;;;3.88;1.35;;;;;;;;;;4990611;28;20045;-79
2023/08/22 11:05:26;;;;;;;5.55;1.92;;;;;;;;;;4988871;28;20152;-74
2023/08/22 11:07:52;;;;;;;4.85;1.58;;;;;;;;;;4978669;28;20368;-75
2023/08/22 11:10:20;;;;;;;3.08;1.15;;;;;;;;;;4987508;28;20154;-75
2023/08/22 11:12:46;;;;;;;8.80;1.50;;;;;;;;;;4991261;28;20129;-75
2023/08/22 11:15:16;;;;;;;7.43;2.67;;;;;;;;;;4984665;28;20034;-77
2023/08/22 11:17:43;;;;;;;6.15;2.63;;;;;;;;;;4993416;28;20037;-76
2023/08/22 11:20:13;;;;;;;6.90;2.30;;;;;;;;;;4988415;28;20133;-75
2023/08/22 11:22:42;;;;;;;4.70;2.05;;;;;;;;;;4989871;28;20046;-77
2023/08/22 11:25:08;;;;;;;6.55;2.75;;;;;;;;;;4987687;28;20091;-77
2023/08/22 11:27:38;;;;;;;5.03;2.47;;;;;;;;;;4988916;28;20030;-77
2023/08/22 11:30:05;;;;;;;6.90;2.88;;;;;;;;;;4988080;28;20046;-78
2023/08/22 11:32:31;;;;;;;6.90;2.33;;;;;;;;;;4987237;28;20080;-77
2023/08/22 11:34:59;;;;;;;7.82;3.00;;;;;;;;;;4985834;28;20053;-77
2023/08/22 11:37:25;;;;;;;6.20;2.58;;;;;;;;;;4985961;28;20491;-77
2023/08/22 11:39:52;;;;;;;7.50;2.88;;;;;;;;;;4986010;28;20035;-77
2023/08/22 11:42:19;;;;;;;9.93;3.78;;;;;;;;;;4982498;28;20046;-77
2023/08/22 11:45:03;;;;;;;8.75;2.92;;;;;;;;;;4984723;28;20065;-75
2023/08/22 11:47:42;;;;;;;8.02;3.58;;;;;;;;;;4983690;28;20038;-76
2023/08/22 11:50:18;;;;;;;13.23;3.58;;;;;;;;;;4979044;28;20026;-76
2023/08/22 11:52:45;;;;;;;8.30;4.03;;;;;;;;;;4989720;28;20404;-78
2023/08/22 11:55:12;;;;;;;7.93;3.78;;;;;;;;;;4987134;28;20058;-80
2023/08/22 11:57:39;;;;;;;11.07;4.03;;;;;;;;;;4990335;28;20057;-79
2023/08/22 12:00:07;;;;;;;7.03;3.42;;;;;;;;;;4991238;28;20026;-77
2023/08/22 12:02:34;;;;;;;7.80;3.65;;;;;;;;;;4987796;28;20424;-79
2023/08/22 12:05:00;;;;;;;8.70;4.72;;;;;;;;;;4997792;28;20046;-79
2023/08/22 12:07:26;;;;;;;8.40;3.60;;;;;;;;;;4993269;28;20353;-82
2023/08/22 12:10:12;;;;;;;15.93;4.75;;;;;;;;;;4994507;28;20234;-77
2023/08/22 12:12:38;;;;;;;10.65;4.50;;;;;;;;;;4995093;28;20030;-77
2023/08/22 12:15:04;;;;;;;8.00;4.10;;;;;;;;;;4989756;28;20468;-77
2023/08/22 12:17:31;;;;;;;9.32;5.03;;;;;;;;;;4992767;28;20034;-77
2023/08/22 12:19:57;;;;;;;8.35;3.17;;;;;;;;;;4989709;28;20054;-77
2023/08/22 12:22:23;;;;;;;8.43;3.33;;;;;;;;;;4982164;28;20038;-76
2023/08/22 12:24:49;;;;;;;8.73;3.60;;;;;;;;;;4985028;28;20069;-76
2023/08/22 12:27:15;;;;;;;7.68;2.40;;;;;;;;;;4991744;28;20430;-77
2023/08/22 12:29:42;;;;;;;9.10;2.58;;;;;;;;;;4987098;28;20035;-76
2023/08/22 12:32:08;;;;;;;6.20;2.60;;;;;;;;;;4992163;28;20121;-77
2023/08/22 12:34:34;;;;;;;9.63;2.70;;;;;;;;;;4990238;28;20054;-77
2023/08/22 12:37:00;;;;;;;8.50;3.60;;;;;;;;;;4984093;28;20022;-77
2023/08/22 12:39:26;;;;;;;5.38;1.95;;;;;;;;;;4994860;28;20499;-77
2023/08/22 12:41:52;;;;;;;4.03;1.73;;;;;;;;;;4991821;28;20065;-76
2023/08/22 12:44:18;;;;;;;6.13;2.80;;;;;;;;;;4990733;28;20042;-76
2023/08/22 12:46:44;;;;;;;6.53;2.42;;;;;;;;;;4988595;28;20042;-77
2023/08/22 12:49:10;;;;;;;8.25;2.35;;;;;;;;;;4991952;28;20438;-77
2023/08/22 12:51:36;;;;;;;8.57;2.13;;;;;;;;;;4987128;28;20169;-77
2023/08/22 12:54:02;;;;;;;6.25;2.30;;;;;;;;;;4994290;28;20118;-77
2023/08/22 12:56:28;;;;;;;7.68;1.73;;;;;;;;;;4997273;28;20092;-77
2023/08/22 12:58:54;;;;;;;6.80;1.88;;;;;;;;;;4992710;28;20110;-76
2023/08/22 13:01:21;;;;;;;8.30;2.10;;;;;;;;;;4991900;28;20504;-77
2023/08/22 13:03:47;;;;;;;10.18;2.47;;;;;;;;;;4999419;28;20073;-77
2023/08/22 13:06:13;;;;;;;4.28;1.75;;;;;;;;;;4999705;28;20094;-76
2023/08/22 13:08:39;;;;;;;5.55;1.58;;;;;;;;;;4990354;28;20030;-77
2023/08/22 13:11:05;;;;;;;8.25;2.17;;;;;;;;;;4991692;28;20105;-77
2023/08/22 13:13:31;;;;;;;4.57;2.08;;;;;;;;;;4990872;28;20162;-76
2023/08/22 13:15:57;;;;;;;5.07;1.73;;;;;;;;;;4984316;28;20027;-75
2023/08/22 13:18:23;;;;;;;5.15;1.85;;;;;;;;;;4989052;28;20043;-75
2023/08/22 13:20:49;;;;;;;7.28;2.28;;;;;;;;;;4982644;28;20041;-75
2023/08/22 13:23:15;;;;;;;7.60;2.17;;;;;;;;;;4991751;28;20042;-75
2023/08/22 13:25:42;;;;;;;9.25;2.00;;;;;;;;;;4988172;28;20034;-75
2023/08/22 13:28:08;;;;;;;3.58;2.03;;;;;;;;;;4990452;28;20031;-75
2023/08/22 13:30:34;;;;;;;6.13;2.25;;;;;;;;;;4989125;28;20512;-74
2023/08/22 13:33:00;;;;;;;8.00;2.00;;;;;;;;;;4994783;28;20514;-75
2023/08/22 13:35:26;;;;;;;6.45;2.22;;;;;;;;;;5002052;28;20682;-75
2023/08/22 13:37:52;;;;;;;8.27;2.38;;;;;;;;;;4991690;28;20066;-75
2023/08/22 13:40:18;;;;;;;9.15;2.60;;;;;;;;;;4983125;28;20038;-75
2023/08/22 13:42:45;;;;;;;9.18;3.00;;;;;;;;;;4983630;28;20039;-75
2023/08/22 13:45:11;;;;;;;9.50;3.20;;;;;;;;;;4990726;28;20505;-75
2023/08/22 13:47:40;;;;;;;10.00;2.92;;;;;;;;;;4981776;28;20026;-75
2023/08/22 13:50:06;;;;;;;7.50;2.80;;;;;;;;;;4990290;28;20034;-75
2023/08/22 13:52:33;;;;;;;8.10;3.13;;;;;;;;;;4989858;28;20072;-75
2023/08/22 13:54:59;;;;;;;8.60;2.60;;;;;;;;;;4990754;28;20093;-75
2023/08/22 13:57:27;;;;;;;6.53;2.35;;;;;;;;;;4989938;28;20026;-75
2023/08/22 13:59:53;;;;;;;7.03;2.80;;;;;;;;;;4990808;28;20033;-76
2023/08/22 14:02:19;;;;;;;8.18;3.05;;;;;;;;;;4980844;28;20395;-75
2023/08/22 14:04:45;;;;;;;5.78;2.70;;;;;;;;;;4991334;28;20353;-75
2023/08/22 14:07:11;;;;;;;8.75;3.03;;;;;;;;;;4991810;28;20030;-75
2023/08/22 14:09:37;;;;;;;5.53;2.20;;;;;;;;;;4991498;28;20749;-74
2023/08/22 14:12:03;;;;;;;7.90;2.67;;;;;;;;;;4989947;28;20105;-75
2023/08/22 14:14:29;;;;;;;8.20;2.53;;;;;;;;;;4987945;28;20045;-75
2023/08/22 14:16:55;;;;;;;8.23;2.60;;;;;;;;;;4987509;28;20026;-75
2023/08/22 14:19:21;;;;;;;9.73;3.08;;;;;;;;;;4991115;28;20027;-75
2023/08/22 14:21:48;;;;;;;8.07;2.75;;;;;;;;;;4990266;28;20642;-75
2023/08/22 14:24:14;;;;;;;7.65;2.53;;;;;;;;;;4984254;28;20034;-75
2023/08/22 14:26:40;;;;;;;8.38;3.15;;;;;;;;;;4990734;28;20076;-75
2023/08/22 14:29:06;;;;;;;8.27;3.10;;;;;;;;;;4989983;28;20599;-76
2023/08/22 14:31:33;;;;;;;7.70;2.35;;;;;;;;;;4984760;28;20583;-75
2023/08/22 14:33:59;;;;;;;8.25;3.25;;;;;;;;;;4989922;28;20062;-75
2023/08/22 14:36:25;;;;;;;5.13;2.28;;;;;;;;;;4989349;28;20031;-74